Orel 3 — UYBY — position and weather

sailwx.info

Track history (hours):
 
Tides and Currents Weather Stations Pressure Air Temp Water Temp Dewpoint Dewpoint Depression Visibility Wind Speed Wind Dir Waves Ship Positions

Orel 3

Last reported at 2017-Sep-25 09:25 UTC. Time now 2017-Sep-25 19:14 UTC.
Position N 43°37' E 028°47'.

Length 108 m; draft 3.4 m.

Type: Cargo ship. MMSI: 272057000.

Date/timePositionNaut miles runAvg speedWind from/ knotsBaromVisibWave heightAir tempDewpointWater temp
2017-Sep-25 09:25N 43°37' E 028°47'3 7.8
2017-Sep-25 09:00N 43°40' E 028°49'4 8.1
2017-Sep-25 08:30N 43°44' E 028°51'4 8.2
2017-Sep-25 08:00N 43°47' E 028°53'4 8.1
2017-Sep-25 07:30N 43°51' E 028°54'4 8.0
2017-Sep-25 07:00N 43°55' E 028°56'4 8.0
2017-Sep-25 06:30N 43°59' E 028°57'4 7.6
2017-Sep-25 06:00N 44°03' E 028°59'4 7.5
2017-Sep-25 05:30N 44°06' E 029°01'4 7.2
2017-Sep-25 05:00N 44°10' E 029°02'3 6.9
2017-Sep-25 04:30N 44°13' E 029°03'4 7.0
2017-Sep-25 04:00N 44°16' E 029°05'4 7.3
2017-Sep-25 03:30N 44°20' E 029°06'4 7.4
2017-Sep-25 03:00N 44°23' E 029°08'4 7.3
2017-Sep-25 02:30N 44°27' E 029°10'4 7.1
2017-Sep-25 02:00N 44°30' E 029°11'4 7.1
2017-Sep-25 01:30N 44°34' E 029°13'3 6.7
2017-Sep-25 01:00N 44°37' E 029°14'135 6.8
2017-Sep-24 05:01N 46°32' E 030°55'35 7.7
2017-Sep-24 00:27N 46°35' E 031°46'3 7.7
2017-Sep-24 00:00N 46°35' E 031°51'4 7.9
2017-Sep-23 23:30N 46°34' E 031°56'4 7.8
2017-Sep-23 23:00N 46°32' E 032°02'149 3.3
2017-Sep-22 02:00N 47°52' E 035°06'0 0.0
2017-Sep-22 01:30N 47°52' E 035°06'0 0.0
2017-Sep-22 01:00N 47°52' E 035°06'0 0.1
2017-Sep-22 00:30N 47°52' E 035°06'0 0.0
2017-Sep-22 00:00N 47°52' E 035°06'0 0.0
2017-Sep-21 23:30N 47°52' E 035°06'0 0.0
2017-Sep-21 23:00N 47°52' E 035°06'0 0.0
2017-Sep-21 22:30N 47°52' E 035°06'0 0.0
2017-Sep-21 22:00N 47°52' E 035°06'0 0.0
2017-Sep-21 21:30N 47°52' E 035°06'0 0.0
2017-Sep-21 21:00N 47°52' E 035°06'0 0.0
2017-Sep-21 20:30N 47°52' E 035°06'0 0.0
2017-Sep-21 20:00N 47°52' E 035°06'0 0.0
2017-Sep-21 19:30N 47°52' E 035°06'0 0.0
2017-Sep-21 19:00N 47°52' E 035°06'0 0.0
2017-Sep-21 18:30N 47°52' E 035°06'0 0.0
2017-Sep-21 18:00N 47°52' E 035°06'0 0.0
2017-Sep-21 17:30N 47°52' E 035°06'0 0.0
2017-Sep-21 17:00N 47°52' E 035°06'0 0.0
2017-Sep-21 16:30N 47°52' E 035°06'0 0.0
2017-Sep-21 16:00N 47°52' E 035°06'0 0.0
2017-Sep-21 15:30N 47°52' E 035°06'0 0.4
2017-Sep-21 15:00N 47°52' E 035°06'0 0.2
2017-Sep-21 14:30N 47°52' E 035°06'0 0.0
2017-Sep-21 14:00N 47°52' E 035°06'0 0.0
2017-Sep-21 13:30N 47°52' E 035°06'0 0.0
2017-Sep-21 13:00N 47°52' E 035°06'0 0.0
2017-Sep-21 12:30N 47°52' E 035°06'0 0.0
2017-Sep-21 12:00N 47°52' E 035°06'0 0.0
2017-Sep-21 11:30N 47°52' E 035°06'0 0.0
2017-Sep-21 11:00N 47°52' E 035°06'0 0.0
2017-Sep-21 10:30N 47°52' E 035°06'0 0.0
2017-Sep-21 10:00N 47°52' E 035°06'0 0.0
2017-Sep-21 09:30N 47°52' E 035°06'0 0.0
2017-Sep-21 09:00N 47°52' E 035°06'0 0.0
2017-Sep-21 08:30N 47°52' E 035°06'0 0.0
2017-Sep-21 08:00N 47°52' E 035°06'0 0.0
2017-Sep-21 07:30N 47°52' E 035°06'0 0.0
2017-Sep-21 07:00N 47°52' E 035°06'0 0.0
2017-Sep-21 06:30N 47°52' E 035°06'0 0.0
2017-Sep-21 06:00N 47°52' E 035°06'0 0.0
2017-Sep-21 05:30N 47°52' E 035°06'0 0.0
2017-Sep-21 05:00N 47°52' E 035°06'0 0.0
2017-Sep-21 04:30N 47°52' E 035°06'0 0.0
2017-Sep-21 04:00N 47°52' E 035°06'0 0.0
2017-Sep-21 03:30N 47°52' E 035°06'0 0.0
2017-Sep-21 03:00N 47°52' E 035°06'0 0.0
2017-Sep-21 02:30N 47°52' E 035°06'0 0.0
2017-Sep-21 02:00N 47°52' E 035°06'0 0.0
2017-Sep-21 01:30N 47°52' E 035°06'0 0.0
2017-Sep-21 01:00N 47°52' E 035°06'0 0.0
2017-Sep-21 00:30N 47°52' E 035°06'0 0.0
2017-Sep-21 00:00N 47°52' E 035°06'0 0.0
2017-Sep-20 23:30N 47°52' E 035°06'0 0.0
2017-Sep-20 23:00N 47°52' E 035°06'0 0.0
2017-Sep-20 22:30N 47°52' E 035°06'0 0.0
2017-Sep-20 22:00N 47°52' E 035°06'0 0.0
2017-Sep-20 21:30N 47°52' E 035°06'0 0.0
2017-Sep-20 21:00N 47°52' E 035°06'0 0.0
2017-Sep-20 20:30N 47°52' E 035°06'0 0.0
2017-Sep-20 20:00N 47°52' E 035°06'0 0.0
2017-Sep-20 19:30N 47°52' E 035°06'0 0.0
2017-Sep-20 19:00N 47°52' E 035°06'0 0.0
2017-Sep-20 18:30N 47°52' E 035°06'0 0.0
2017-Sep-20 18:00N 47°52' E 035°06'0 0.0
2017-Sep-20 17:30N 47°52' E 035°06'0 0.0
2017-Sep-20 17:00N 47°52' E 035°06'0 0.0
2017-Sep-20 16:30N 47°52' E 035°06'0 0.0
2017-Sep-20 16:00N 47°52' E 035°06'0 0.0
2017-Sep-20 15:30N 47°52' E 035°06'0 0.0
2017-Sep-20 15:00N 47°52' E 035°06'0 0.0
2017-Sep-20 14:00N 47°52' E 035°06'0 0.0
2017-Sep-20 13:30N 47°52' E 035°06'0 0.1
2017-Sep-20 13:00N 47°52' E 035°06'1 1.6
2017-Sep-20 12:30N 47°52' E 035°05'0 0.2
2017-Sep-20 12:00N 47°52' E 035°05'2 4.6
2017-Sep-20 11:30N 47°50' E 035°07'2 3.7
2017-Sep-20 11:00N 47°49' E 035°09'2 3.5
2017-Sep-20 10:30N 47°47' E 035°09'4 7.7
2017-Sep-20 10:00N 47°43' E 035°09'  
2017-Sep-18 05:25N 46°37' E 032°36'0 0.0
2017-Sep-18 04:55N 46°37' E 032°36'0 0.0
2017-Sep-18 04:22N 46°37' E 032°36'0 0.0
2017-Sep-18 02:01N 46°37' E 032°36'  
Track history (hours):
 
Tides and Currents Weather Stations Pressure Air Temp Water Temp Dewpoint Dewpoint Depression Visibility Wind Speed Wind Dir Waves Ship Positions

Orel 3

Last reported at 2017-Sep-25 09:25 UTC. Time now 2017-Sep-25 19:14 UTC.
Position N 43°37' E 028°47'.

Length 108 m; draft 3.4 m.

Type: Cargo ship. MMSI: 272057000.

Date/timePositionNaut miles runAvg speedWind from/ knotsBaromVisibWave heightAir tempDewpointWater temp
2017-Sep-25 09:25N 43°37' E 028°47'3 7.8
2017-Sep-25 09:00N 43°40' E 028°49'4 8.1
2017-Sep-25 08:30N 43°44' E 028°51'4 8.2
2017-Sep-25 08:00N 43°47' E 028°53'4 8.1
2017-Sep-25 07:30N 43°51' E 028°54'4 8.0
2017-Sep-25 07:00N 43°55' E 028°56'4 8.0
2017-Sep-25 06:30N 43°59' E 028°57'4 7.6
2017-Sep-25 06:00N 44°03' E 028°59'4 7.5
2017-Sep-25 05:30N 44°06' E 029°01'4 7.2
2017-Sep-25 05:00N 44°10' E 029°02'3 6.9
2017-Sep-25 04:30N 44°13' E 029°03'4 7.0
2017-Sep-25 04:00N 44°16' E 029°05'4 7.3
2017-Sep-25 03:30N 44°20' E 029°06'4 7.4
2017-Sep-25 03:00N 44°23' E 029°08'4 7.3
2017-Sep-25 02:30N 44°27' E 029°10'4 7.1
2017-Sep-25 02:00N 44°30' E 029°11'4 7.1
2017-Sep-25 01:30N 44°34' E 029°13'3 6.7
2017-Sep-25 01:00N 44°37' E 029°14'135 6.8
2017-Sep-24 05:01N 46°32' E 030°55'35 7.7
2017-Sep-24 00:27N 46°35' E 031°46'3 7.7
2017-Sep-24 00:00N 46°35' E 031°51'4 7.9
2017-Sep-23 23:30N 46°34' E 031°56'4 7.8
2017-Sep-23 23:00N 46°32' E 032°02'149 3.3
2017-Sep-22 02:00N 47°52' E 035°06'0 0.0
2017-Sep-22 01:30N 47°52' E 035°06'0 0.0
2017-Sep-22 01:00N 47°52' E 035°06'0 0.1
2017-Sep-22 00:30N 47°52' E 035°06'0 0.0
2017-Sep-22 00:00N 47°52' E 035°06'0 0.0
2017-Sep-21 23:30N 47°52' E 035°06'0 0.0
2017-Sep-21 23:00N 47°52' E 035°06'0 0.0
2017-Sep-21 22:30N 47°52' E 035°06'0 0.0
2017-Sep-21 22:00N 47°52' E 035°06'0 0.0
2017-Sep-21 21:30N 47°52' E 035°06'0 0.0
2017-Sep-21 21:00N 47°52' E 035°06'0 0.0
2017-Sep-21 20:30N 47°52' E 035°06'0 0.0
2017-Sep-21 20:00N 47°52' E 035°06'0 0.0
2017-Sep-21 19:30N 47°52' E 035°06'0 0.0
2017-Sep-21 19:00N 47°52' E 035°06'0 0.0
2017-Sep-21 18:30N 47°52' E 035°06'0 0.0
2017-Sep-21 18:00N 47°52' E 035°06'0 0.0
2017-Sep-21 17:30N 47°52' E 035°06'0 0.0
2017-Sep-21 17:00N 47°52' E 035°06'0 0.0
2017-Sep-21 16:30N 47°52' E 035°06'0 0.0
2017-Sep-21 16:00N 47°52' E 035°06'0 0.0
2017-Sep-21 15:30N 47°52' E 035°06'0 0.4
2017-Sep-21 15:00N 47°52' E 035°06'0 0.2
2017-Sep-21 14:30N 47°52' E 035°06'0 0.0
2017-Sep-21 14:00N 47°52' E 035°06'0 0.0
2017-Sep-21 13:30N 47°52' E 035°06'0 0.0
2017-Sep-21 13:00N 47°52' E 035°06'0 0.0
2017-Sep-21 12:30N 47°52' E 035°06'0 0.0
2017-Sep-21 12:00N 47°52' E 035°06'0 0.0
2017-Sep-21 11:30N 47°52' E 035°06'0 0.0
2017-Sep-21 11:00N 47°52' E 035°06'0 0.0
2017-Sep-21 10:30N 47°52' E 035°06'0 0.0
2017-Sep-21 10:00N 47°52' E 035°06'0 0.0
2017-Sep-21 09:30N 47°52' E 035°06'0 0.0
2017-Sep-21 09:00N 47°52' E 035°06'0 0.0
2017-Sep-21 08:30N 47°52' E 035°06'0 0.0
2017-Sep-21 08:00N 47°52' E 035°06'0 0.0
2017-Sep-21 07:30N 47°52' E 035°06'0 0.0
2017-Sep-21 07:00N 47°52' E 035°06'0 0.0
2017-Sep-21 06:30N 47°52' E 035°06'0 0.0
2017-Sep-21 06:00N 47°52' E 035°06'0 0.0
2017-Sep-21 05:30N 47°52' E 035°06'0 0.0
2017-Sep-21 05:00N 47°52' E 035°06'0 0.0
2017-Sep-21 04:30N 47°52' E 035°06'0 0.0
2017-Sep-21 04:00N 47°52' E 035°06'0 0.0
2017-Sep-21 03:30N 47°52' E 035°06'0 0.0
2017-Sep-21 03:00N 47°52' E 035°06'0 0.0
2017-Sep-21 02:30N 47°52' E 035°06'0 0.0
2017-Sep-21 02:00N 47°52' E 035°06'0 0.0
2017-Sep-21 01:30N 47°52' E 035°06'0 0.0
2017-Sep-21 01:00N 47°52' E 035°06'0 0.0
2017-Sep-21 00:30N 47°52' E 035°06'0 0.0
2017-Sep-21 00:00N 47°52' E 035°06'0 0.0
2017-Sep-20 23:30N 47°52' E 035°06'0 0.0
2017-Sep-20 23:00N 47°52' E 035°06'0 0.0
2017-Sep-20 22:30N 47°52' E 035°06'0 0.0
2017-Sep-20 22:00N 47°52' E 035°06'0 0.0
2017-Sep-20 21:30N 47°52' E 035°06'0 0.0
2017-Sep-20 21:00N 47°52' E 035°06'0 0.0
2017-Sep-20 20:30N 47°52' E 035°06'0 0.0
2017-Sep-20 20:00N 47°52' E 035°06'0 0.0
2017-Sep-20 19:30N 47°52' E 035°06'0 0.0
2017-Sep-20 19:00N 47°52' E 035°06'0 0.0
2017-Sep-20 18:30N 47°52' E 035°06'0 0.0
2017-Sep-20 18:00N 47°52' E 035°06'0 0.0
2017-Sep-20 17:30N 47°52' E 035°06'0 0.0
2017-Sep-20 17:00N 47°52' E 035°06'0 0.0
2017-Sep-20 16:30N 47°52' E 035°06'0 0.0
2017-Sep-20 16:00N 47°52' E 035°06'0 0.0
2017-Sep-20 15:30N 47°52' E 035°06'0 0.0
2017-Sep-20 15:00N 47°52' E 035°06'0 0.0
2017-Sep-20 14:00N 47°52' E 035°06'0 0.0
2017-Sep-20 13:30N 47°52' E 035°06'0 0.1
2017-Sep-20 13:00N 47°52' E 035°06'1 1.6
2017-Sep-20 12:30N 47°52' E 035°05'0 0.2
2017-Sep-20 12:00N 47°52' E 035°05'2 4.6
2017-Sep-20 11:30N 47°50' E 035°07'2 3.7
2017-Sep-20 11:00N 47°49' E 035°09'2 3.5
2017-Sep-20 10:30N 47°47' E 035°09'4 7.7
2017-Sep-20 10:00N 47°43' E 035°09'  
2017-Sep-18 05:25N 46°37' E 032°36'0 0.0
2017-Sep-18 04:55N 46°37' E 032°36'0 0.0
2017-Sep-18 04:22N 46°37' E 032°36'0 0.0
2017-Sep-18 02:01N 46°37' E 032°36'  

Dump ship's entire track history